Houston, Texas
Traffic Map
Current Weather Conditions
Houston, Texas
Overcast Light Rain
Overcast
71°
Feels Like: 71°
Wind Chill: 71° Ceiling: 12000
Heat Index: 71° Visibility: 10mi
Dew Point: 67° Wind: 20mph
Humidity: 87% Direction: 100° (E)
Pressure: 29.88in Gusts: 0mph
Raw Report DataKIAH 290753Z 10017KT 10SM -RA FEW007 FEW040 OVC120 22/19 A2988 RMK AO2 PK WND 12026/0724 LTG DSNT E-S TSE30 PRESFR SLP115 OCNL LTG DSNT E SE TS MOVD SE P0003 T02170194 $
Traffic Incident Summary
Active as of:
Severity:
Category:
InformationThere was an issue retrieving the traffic information for this location. Please try a different location or try again shortly.
Advertisements
Track Severe Weather on mobile